This is the latest recevied weather packets stored in our database for station/object HS5BOG-13. If no packets are shown the sender has not sent any weather packets the latest 10 day(s).
| Time | Temp. | Humidity | Pressure | Rain* | Wind** | Luminosity | Snow |
|---|---|---|---|---|---|---|---|
| 1777775800 | 30.56° C | 52% | 993.5 hPa | - | - | - | - |
| 1777775194 | 30° C | 53% | 993.5 hPa | - | - | - | - |
| 1777774589 | 30° C | 56% | 993.4 hPa | - | - | - | - |
| 1777773983 | 30.56° C | 59% | 993.4 hPa | - | - | - | - |
| 1777773378 | 30° C | 59% | 993.5 hPa | - | - | - | - |
| 1777772167 | 30° C | 59% | 993.3 hPa | - | - | - | - |
| 1777770956 | 29.44° C | 59% | 993.1 hPa | - | - | - | - |
| 1777770350 | 29.44° C | 61% | 993.1 hPa | - | - | - | - |
| 1777769745 | 29.44° C | 61% | 993 hPa | - | - | - | - |
| 1777767928 | 29.44° C | 61% | 992.7 hPa | - | - | - | - |
| 1777761266 | 29.44° C | 56% | 991 hPa | - | - | - | - |
| 1777760660 | 29.44° C | 56% | 990.9 hPa | - | - | - | - |
| 1777760055 | 29.44° C | 56% | 990.8 hPa | - | - | - | - |
| 1777757512 | 30° C | 54% | 990.7 hPa | - | - | - | - |
| 1777756907 | 30° C | 54% | 990.6 hPa | - | - | - | - |
| 1777756301 | 30.56° C | 53% | 990.3 hPa | - | - | - | - |
| 1777755695 | 30.56° C | 53% | 990.4 hPa | - | - | - | - |
| 1777754484 | 30.56° C | 51% | 990.2 hPa | - | - | - | - |
| 1777752667 | 30.56° C | 51% | 990 hPa | - | - | - | - |
| 1777752061 | 30° C | 50% | 990 hPa | - | - | - | - |
| 1777751456 | 30.56° C | 50% | 990 hPa | - | - | - | - |
| 1777750245 | 30.56° C | 49% | 990 hPa | - | - | - | - |
| 1777749639 | 30.56° C | 49% | 990 hPa | - | - | - | - |
| 1777749034 | 30.56° C | 49% | 990.2 hPa | - | - | - | - |
| 1777748428 | 30.56° C | 49% | 990.2 hPa | - | - | - | - |
* Rain since midnight (hover to see other rain measurements)
** Current wind speed in m/s (hover to see current wind gust speed)